createdAt,value
2023-05-14T00:00:19.587Z,73.10
2023-05-14T00:02:46.230Z,73.20
2023-05-14T00:05:12.888Z,73.10
2023-05-14T00:07:39.606Z,73.40
2023-05-14T00:10:06.691Z,73.20
2023-05-14T00:12:33.381Z,73.30
2023-05-14T00:15:00.058Z,73.10
2023-05-14T00:17:26.664Z,73.20
2023-05-14T00:19:53.280Z,73.20
2023-05-14T00:22:19.855Z,73.60
2023-05-14T00:24:46.448Z,73.40
2023-05-14T00:27:13.042Z,73.50
2023-05-14T00:29:39.842Z,73.80
2023-05-14T00:32:06.553Z,74.00
2023-05-14T00:34:33.195Z,74.20
2023-05-14T00:36:59.730Z,74.60
2023-05-14T00:39:26.304Z,74.60
2023-05-14T00:41:52.846Z,74.30
2023-05-14T00:44:19.446Z,74.10
2023-05-14T00:46:46.188Z,74.20
2023-05-14T00:49:13.103Z,74.10
2023-05-14T00:51:39.876Z,74.80
2023-05-14T00:54:06.640Z,74.40
2023-05-14T00:56:34.041Z,74.50
2023-05-14T00:59:00.686Z,74.80
2023-05-14T01:01:28.660Z,74.80
2023-05-14T01:03:57.843Z,75.20
2023-05-14T01:06:41.038Z,75.10
2023-05-14T01:09:13.545Z,75.50
2023-05-14T01:11:43.703Z,75.10
2023-05-14T01:14:10.297Z,75.20
2023-05-14T01:16:38.241Z,75.30
2023-05-14T01:19:06.294Z,75.40
2023-05-14T01:21:37.465Z,75.50
2023-05-14T01:24:04.416Z,75.70
2023-05-14T01:26:31.544Z,76.10
2023-05-14T01:29:13.642Z,76.00
2023-05-14T01:31:42.999Z,76.00
2023-05-14T01:34:11.715Z,75.40
2023-05-14T01:36:38.920Z,75.90
2023-05-14T01:39:05.853Z,76.10
2023-05-14T01:41:32.763Z,76.40
2023-05-14T01:43:59.435Z,76.80
2023-05-14T01:46:26.044Z,76.00
2023-05-14T01:48:52.698Z,76.50
2023-05-14T01:51:19.285Z,76.40
2023-05-14T01:53:45.899Z,76.60
2023-05-14T01:56:12.458Z,76.90
2023-05-14T01:58:39.058Z,77.20
2023-05-14T02:01:05.895Z,77.20
2023-05-14T02:03:32.564Z,77.20
2023-05-14T02:05:59.171Z,77.20
2023-05-14T02:08:25.878Z,77.50
2023-05-14T02:10:52.469Z,77.40
2023-05-14T02:13:19.470Z,77.40
2023-05-14T02:15:46.226Z,77.80
2023-05-14T02:18:12.950Z,77.40
2023-05-14T02:20:39.549Z,77.70
2023-05-14T02:23:06.222Z,77.30
2023-05-14T02:25:32.826Z,77.40
2023-05-14T02:27:59.380Z,77.80
2023-05-14T02:30:26.102Z,77.40
2023-05-14T02:32:52.831Z,77.40
2023-05-14T02:35:19.518Z,77.30
2023-05-14T02:37:46.269Z,77.50
2023-05-14T02:40:12.925Z,77.70
2023-05-14T02:42:39.541Z,78.00
2023-05-14T02:45:06.584Z,77.80
2023-05-14T02:47:33.192Z,77.50
2023-05-14T02:49:59.845Z,78.00
2023-05-14T02:52:26.460Z,77.70
2023-05-14T02:54:53.124Z,78.10
2023-05-14T02:57:19.691Z,78.00
2023-05-14T02:59:46.293Z,77.60
2023-05-14T03:02:13.268Z,77.40
2023-05-14T03:04:40.297Z,77.60
2023-05-14T03:07:06.867Z,78.20
2023-05-14T03:09:34.245Z,77.60
2023-05-14T03:12:02.015Z,77.30
2023-05-14T03:14:28.661Z,77.10
2023-05-14T03:16:55.568Z,76.90
2023-05-14T03:19:22.246Z,77.30
2023-05-14T03:21:49.966Z,77.10
2023-05-14T03:24:16.536Z,78.10
2023-05-14T03:26:43.222Z,77.90
2023-05-14T03:29:10.786Z,77.70
2023-05-14T03:31:37.470Z,77.70
2023-05-14T03:34:04.162Z,77.40
2023-05-14T03:36:31.838Z,77.60
2023-05-14T03:38:58.429Z,77.80
2023-05-14T03:41:24.987Z,77.80
2023-05-14T03:43:51.695Z,77.90
2023-05-14T03:46:18.302Z,77.70
2023-05-14T03:48:44.982Z,78.30
2023-05-14T03:51:11.591Z,78.30
2023-05-14T03:53:38.147Z,77.80
2023-05-14T03:56:04.889Z,77.70
2023-05-14T03:58:31.476Z,77.70
2023-05-14T04:00:58.183Z,78.00
2023-05-14T04:03:24.911Z,78.90
2023-05-14T04:05:51.550Z,78.50
2023-05-14T04:08:18.125Z,78.10
2023-05-14T04:10:44.716Z,77.90
2023-05-14T04:13:11.328Z,77.60
2023-05-14T04:15:39.222Z,77.70
2023-05-14T04:18:06.056Z,77.40
2023-05-14T04:20:32.677Z,76.50
2023-05-14T04:22:59.395Z,76.80
2023-05-14T04:25:26.029Z,76.30
2023-05-14T04:27:52.581Z,76.80
2023-05-14T04:30:19.233Z,76.70
2023-05-14T04:32:45.813Z,76.60
2023-05-14T04:35:12.912Z,75.40
2023-05-14T04:37:40.404Z,74.70
2023-05-14T04:40:08.006Z,75.00
2023-05-14T04:42:34.567Z,73.60
2023-05-14T04:45:01.216Z,72.80
2023-05-14T04:47:27.906Z,73.80
2023-05-14T04:49:54.541Z,73.40
2023-05-14T04:52:21.141Z,73.40
2023-05-14T04:54:47.817Z,72.80
2023-05-14T04:57:14.510Z,73.40
2023-05-14T04:59:41.140Z,73.00
2023-05-14T05:02:07.818Z,72.70
2023-05-14T05:04:34.466Z,73.10
2023-05-14T05:07:01.105Z,73.90
2023-05-14T05:09:27.684Z,72.30
2023-05-14T05:11:54.327Z,72.20
2023-05-14T05:14:21.006Z,72.80
2023-05-14T05:16:47.715Z,72.60
2023-05-14T05:19:14.380Z,72.70
2023-05-14T05:21:40.972Z,72.90
2023-05-14T05:24:07.907Z,71.90
2023-05-14T05:26:36.792Z,71.00
2023-05-14T05:29:04.096Z,70.30
2023-05-14T05:31:31.085Z,70.90
2023-05-14T05:33:59.090Z,70.30
2023-05-14T05:36:25.728Z,70.60
2023-05-14T05:38:52.339Z,70.00
2023-05-14T05:41:19.047Z,71.40
2023-05-14T05:43:45.607Z,72.50
2023-05-14T05:46:12.390Z,72.80
2023-05-14T05:48:41.685Z,69.80
2023-05-14T05:51:08.371Z,69.60
2023-05-14T05:53:34.930Z,69.20
2023-05-14T05:56:01.566Z,68.40
2023-05-14T05:58:28.153Z,68.80
2023-05-14T06:00:55.128Z,69.90
2023-05-14T06:03:22.109Z,71.50
2023-05-14T06:05:48.946Z,68.40
2023-05-14T06:08:16.126Z,70.20
2023-05-14T06:10:42.702Z,71.50
2023-05-14T06:13:09.290Z,72.50
2023-05-14T06:15:35.878Z,72.00
2023-05-14T06:18:02.511Z,68.90
2023-05-14T06:20:29.188Z,69.70
2023-05-14T06:22:55.837Z,75.10
2023-05-14T06:25:22.862Z,70.40
2023-05-14T06:27:49.461Z,72.90
2023-05-14T06:30:16.153Z,73.70
2023-05-14T06:32:42.736Z,71.10
2023-05-14T06:35:09.426Z,68.90
2023-05-14T06:37:36.073Z,67.90
2023-05-14T06:40:03.671Z,69.30
2023-05-14T06:42:30.349Z,66.80
2023-05-14T06:44:56.964Z,66.70
2023-05-14T06:47:23.653Z,68.40
2023-05-14T06:49:50.284Z,67.80
2023-05-14T06:52:16.893Z,70.20
2023-05-14T06:54:43.527Z,67.50
2023-05-14T06:57:10.466Z,69.30
2023-05-14T06:59:37.054Z,69.10
2023-05-14T07:02:03.631Z,67.60
2023-05-14T07:04:30.247Z,67.60
2023-05-14T07:06:56.945Z,67.70
2023-05-14T07:09:23.661Z,67.40
2023-05-14T07:11:50.379Z,65.80
2023-05-14T07:14:16.995Z,67.40
2023-05-14T07:16:43.604Z,66.60
2023-05-14T07:19:10.427Z,67.20
2023-05-14T07:21:37.104Z,68.30
2023-05-14T07:24:03.806Z,66.90
2023-05-14T07:26:31.429Z,68.20
2023-05-14T07:28:57.987Z,66.50
2023-05-14T07:31:24.652Z,65.70
2023-05-14T07:33:51.353Z,66.40
2023-05-14T07:36:17.962Z,64.50
2023-05-14T07:38:44.556Z,67.20
2023-05-14T07:41:12.237Z,66.90
2023-05-14T07:43:40.329Z,65.70
2023-05-14T07:46:06.966Z,64.60
2023-05-14T07:48:33.552Z,65.00
2023-05-14T07:51:00.350Z,69.30
2023-05-14T07:53:26.938Z,65.40
2023-05-14T07:55:54.511Z,66.80
2023-05-14T07:58:21.134Z,64.20
2023-05-14T08:00:47.754Z,64.20
2023-05-14T08:03:14.962Z,64.60
2023-05-14T08:05:41.782Z,63.00
2023-05-14T08:08:08.374Z,63.30
2023-05-14T08:10:35.060Z,62.30
2023-05-14T08:13:01.877Z,61.60
2023-05-14T08:15:28.497Z,64.50
2023-05-14T08:17:55.194Z,61.20
2023-05-14T08:20:22.662Z,58.50
2023-05-14T08:22:49.430Z,59.30
2023-05-14T08:25:16.128Z,61.00
2023-05-14T08:27:42.793Z,57.30
2023-05-14T08:30:09.527Z,58.70
2023-05-14T08:32:38.368Z,59.50
2023-05-14T08:35:05.456Z,60.30
2023-05-14T08:37:32.145Z,60.10
2023-05-14T08:39:58.786Z,58.30
2023-05-14T08:42:26.900Z,59.20
2023-05-14T08:45:02.055Z,59.50
2023-05-14T08:47:29.235Z,59.20
2023-05-14T08:49:58.637Z,57.50
2023-05-14T08:52:25.470Z,55.10
2023-05-14T08:54:53.627Z,55.40
2023-05-14T08:57:20.794Z,57.90
2023-05-14T08:59:47.614Z,57.30
2023-05-14T09:02:15.113Z,60.70
2023-05-14T09:04:42.431Z,58.20
2023-05-14T09:07:09.226Z,56.20
2023-05-14T09:09:36.477Z,57.70
2023-05-14T09:12:03.263Z,55.00
2023-05-14T09:14:29.975Z,55.70
2023-05-14T09:16:57.029Z,54.90
2023-05-14T09:19:24.034Z,55.70
2023-05-14T09:21:50.667Z,57.00
2023-05-14T09:24:21.370Z,55.60
2023-05-14T09:26:52.838Z,54.40
2023-05-14T09:29:19.491Z,56.50
2023-05-14T09:31:46.158Z,55.00
2023-05-14T09:34:23.102Z,52.50
2023-05-14T09:36:49.666Z,55.40
2023-05-14T09:39:17.318Z,53.50
2023-05-14T09:41:43.892Z,53.50
2023-05-14T09:44:10.823Z,56.10
2023-05-14T09:46:37.388Z,53.80
2023-05-14T09:49:04.005Z,52.40
2023-05-14T09:51:31.689Z,54.30
2023-05-14T09:53:58.658Z,52.60
2023-05-14T09:56:25.254Z,52.70
2023-05-14T09:58:51.859Z,53.70
2023-05-14T10:01:19.446Z,53.10
2023-05-14T10:03:46.178Z,52.00
2023-05-14T10:06:13.428Z,46.70
2023-05-14T10:08:41.438Z,48.80
2023-05-14T10:11:12.394Z,48.70
2023-05-14T10:13:39.880Z,47.70
2023-05-14T10:16:15.539Z,49.50
2023-05-14T10:18:48.466Z,47.90
2023-05-14T10:21:16.992Z,46.60
2023-05-14T10:23:43.776Z,47.00
2023-05-14T10:26:10.476Z,47.30
2023-05-14T10:28:37.246Z,48.40
2023-05-14T10:31:03.900Z,48.90
2023-05-14T10:33:30.766Z,48.40
2023-05-14T10:36:07.509Z,48.50
2023-05-14T10:38:35.080Z,48.30
2023-05-14T10:41:05.932Z,50.00
2023-05-14T10:43:39.825Z,49.10
2023-05-14T10:46:07.618Z,52.10
2023-05-14T10:48:34.518Z,51.20
2023-05-14T10:51:02.436Z,51.20
2023-05-14T10:53:47.590Z,49.40
2023-05-14T10:56:14.381Z,51.10
2023-05-14T10:58:44.666Z,52.50
2023-05-14T11:01:12.741Z,52.90
2023-05-14T11:03:43.438Z,50.80
2023-05-14T11:06:10.956Z,51.10
2023-05-14T11:08:38.426Z,51.60
2023-05-14T11:11:05.566Z,52.20
2023-05-14T11:13:34.343Z,53.00
2023-05-14T11:16:08.709Z,51.80
2023-05-14T11:18:42.203Z,52.30
2023-05-14T11:21:08.984Z,52.90
2023-05-14T11:23:35.571Z,53.60
2023-05-14T11:26:02.226Z,52.70
2023-05-14T11:28:29.710Z,52.90
2023-05-14T11:30:56.356Z,52.70
2023-05-14T11:33:22.959Z,53.20
2023-05-14T11:35:49.610Z,53.70
2023-05-14T11:38:16.255Z,54.30
2023-05-14T11:40:43.404Z,53.60
2023-05-14T11:43:10.072Z,53.40
2023-05-14T11:45:37.756Z,54.70
2023-05-14T11:48:11.908Z,53.90
2023-05-14T11:50:38.494Z,53.30
2023-05-14T11:53:05.089Z,55.00
2023-05-14T11:55:33.856Z,53.70
2023-05-14T11:58:00.648Z,54.10
2023-05-14T12:00:27.339Z,53.00
2023-05-14T12:02:54.477Z,53.40
2023-05-14T12:05:21.254Z,53.30
2023-05-14T12:07:48.023Z,53.60
2023-05-14T12:10:14.698Z,54.10
2023-05-14T12:12:44.829Z,56.20
2023-05-14T12:15:12.660Z,54.80
2023-05-14T12:17:39.746Z,54.30
2023-05-14T12:20:10.323Z,55.30
2023-05-14T12:22:37.278Z,53.50
2023-05-14T12:25:04.014Z,52.90
2023-05-14T12:27:31.016Z,54.30
2023-05-14T12:30:16.811Z,54.80
2023-05-14T12:32:51.472Z,54.40
2023-05-14T12:35:18.727Z,56.70
2023-05-14T12:37:45.532Z,54.00
2023-05-14T12:40:12.281Z,54.20
2023-05-14T12:42:38.885Z,55.50
2023-05-14T12:45:08.001Z,54.10
2023-05-14T12:47:35.022Z,53.50
2023-05-14T12:50:02.035Z,55.90
2023-05-14T12:52:37.421Z,54.00
2023-05-14T12:55:06.520Z,55.70
2023-05-14T12:57:35.053Z,54.60
2023-05-14T13:00:01.875Z,53.40
2023-05-14T13:02:28.432Z,53.60
2023-05-14T13:04:55.002Z,51.80
2023-05-14T13:07:21.583Z,51.10
2023-05-14T13:09:48.186Z,52.00
2023-05-14T13:12:14.739Z,51.20
2023-05-14T13:14:41.333Z,49.50
2023-05-14T13:17:08.171Z,52.00
2023-05-14T13:19:34.919Z,53.70
2023-05-14T13:22:01.574Z,53.10
2023-05-14T13:24:28.146Z,50.80
2023-05-14T13:26:54.803Z,53.20
2023-05-14T13:29:21.405Z,51.20
2023-05-14T13:31:48.137Z,51.90
2023-05-14T13:34:14.792Z,50.80
2023-05-14T13:36:43.473Z,51.20
2023-05-14T13:39:12.695Z,53.30
2023-05-14T13:41:41.070Z,53.70
2023-05-14T13:44:07.917Z,52.90
2023-05-14T13:46:34.778Z,54.80
2023-05-14T13:49:01.406Z,56.30
2023-05-14T13:51:28.002Z,53.10
2023-05-14T13:56:26.162Z,57.50
2023-05-14T13:58:52.785Z,53.00
2023-05-14T14:01:19.551Z,52.80
2023-05-14T14:03:46.170Z,52.00
2023-05-14T14:06:12.789Z,51.60
2023-05-14T14:08:39.353Z,51.30
2023-05-14T14:11:05.979Z,52.40
2023-05-14T14:13:32.589Z,52.30
2023-05-14T14:15:59.398Z,51.70
2023-05-14T14:18:27.042Z,51.20
2023-05-14T14:20:56.570Z,50.60
2023-05-14T14:23:23.198Z,51.90
2023-05-14T14:25:49.885Z,51.40
2023-05-14T14:28:16.504Z,50.50
2023-05-14T14:30:43.915Z,54.00
2023-05-14T14:33:11.299Z,53.40
2023-05-14T14:35:38.067Z,52.60
2023-05-14T14:38:04.609Z,54.50
2023-05-14T14:40:32.644Z,52.70
2023-05-14T14:42:59.305Z,51.60
2023-05-14T14:45:26.069Z,56.60
2023-05-14T14:48:12.817Z,54.10
2023-05-14T14:50:39.432Z,53.70
2023-05-14T14:53:06.009Z,57.50
2023-05-14T14:55:32.611Z,52.30
2023-05-14T14:57:59.200Z,54.20
2023-05-14T15:00:26.097Z,53.80
2023-05-14T15:02:52.826Z,53.00
2023-05-14T15:05:19.444Z,53.90
2023-05-14T15:07:46.008Z,54.90
2023-05-14T15:10:12.680Z,53.90
2023-05-14T15:12:39.283Z,53.10
2023-05-14T15:15:06.741Z,53.60
2023-05-14T15:17:33.378Z,53.20
2023-05-14T15:20:00.040Z,53.70
2023-05-14T15:22:26.744Z,54.40
2023-05-14T15:24:53.301Z,54.40
2023-05-14T15:27:19.893Z,53.60
2023-05-14T15:29:46.587Z,54.80
2023-05-14T15:32:13.228Z,53.30
2023-05-14T15:34:39.803Z,53.40
2023-05-14T15:37:06.418Z,54.60
2023-05-14T15:39:33.056Z,53.60
2023-05-14T15:41:59.844Z,53.30
2023-05-14T15:44:26.503Z,54.60
2023-05-14T15:46:53.192Z,52.90
2023-05-14T15:49:19.798Z,54.00
2023-05-14T15:51:46.410Z,53.60
2023-05-14T15:54:12.972Z,53.80
2023-05-14T15:56:39.552Z,53.80
2023-05-14T15:59:06.149Z,53.00
2023-05-14T16:01:32.795Z,54.00
2023-05-14T16:03:59.569Z,52.30
2023-05-14T16:06:26.212Z,53.60
2023-05-14T16:08:53.157Z,52.70
2023-05-14T16:11:19.761Z,53.40
2023-05-14T16:13:46.431Z,53.40
2023-05-14T16:16:13.046Z,53.90
2023-05-14T16:18:40.318Z,53.60
2023-05-14T16:21:06.897Z,55.30
2023-05-14T16:23:33.488Z,54.60
2023-05-14T16:26:00.131Z,53.20
2023-05-14T16:28:26.996Z,55.20
2023-05-14T16:30:53.595Z,54.00
2023-05-14T16:33:20.208Z,54.20
2023-05-14T16:35:46.868Z,54.40
2023-05-14T16:38:14.042Z,53.50
2023-05-14T16:40:41.725Z,53.30
2023-05-14T16:43:08.379Z,53.40
2023-05-14T16:45:37.192Z,53.60
2023-05-14T16:48:04.325Z,54.80
2023-05-14T16:50:30.998Z,53.70
2023-05-14T16:52:57.694Z,55.00
2023-05-14T16:55:24.596Z,54.90
2023-05-14T16:57:51.406Z,56.30
2023-05-14T17:00:18.085Z,55.50
2023-05-14T17:02:44.749Z,55.90
2023-05-14T17:05:11.304Z,55.20
2023-05-14T17:07:39.166Z,55.00
2023-05-14T17:10:06.826Z,55.30
2023-05-14T17:12:33.394Z,55.30
2023-05-14T17:15:02.531Z,55.00
2023-05-14T17:17:32.571Z,54.90
2023-05-14T17:19:59.635Z,55.30
2023-05-14T17:22:26.248Z,55.40
2023-05-14T17:24:52.853Z,55.00
2023-05-14T17:27:19.554Z,55.60
2023-05-14T17:29:46.134Z,54.80
2023-05-14T17:32:12.825Z,55.50
2023-05-14T17:34:39.412Z,54.70
2023-05-14T17:37:06.048Z,55.20
2023-05-14T17:39:32.666Z,55.50
2023-05-14T17:41:59.263Z,55.50
2023-05-14T17:44:25.994Z,56.30
2023-05-14T17:46:52.718Z,57.90
2023-05-14T17:49:19.393Z,60.00
2023-05-14T17:51:45.983Z,57.80
2023-05-14T17:54:12.605Z,59.60
2023-05-14T17:56:39.471Z,57.90
2023-05-14T17:59:06.049Z,59.30
2023-05-14T18:01:32.986Z,60.60
2023-05-14T18:03:59.810Z,61.10
2023-05-14T18:06:26.562Z,59.10
2023-05-14T18:08:53.108Z,62.00
2023-05-14T18:11:19.732Z,61.20
2023-05-14T18:13:46.378Z,60.50
2023-05-14T18:16:13.045Z,59.10
2023-05-14T18:18:39.714Z,62.30
2023-05-14T18:21:06.337Z,62.00
2023-05-14T18:23:32.936Z,62.80
2023-05-14T18:25:59.945Z,61.80
2023-05-14T18:28:26.657Z,63.20
2023-05-14T18:30:53.356Z,64.50
2023-05-14T18:33:19.967Z,61.30
2023-05-14T18:35:46.644Z,63.50
2023-05-14T18:38:13.770Z,62.30
2023-05-14T18:40:40.473Z,65.00
2023-05-14T18:43:07.106Z,63.50
2023-05-14T18:45:33.809Z,63.10
2023-05-14T18:48:00.562Z,64.50
2023-05-14T18:50:27.344Z,63.70
2023-05-14T18:52:53.972Z,64.50
2023-05-14T18:55:20.677Z,63.40
2023-05-14T18:57:47.343Z,65.00
2023-05-14T19:00:14.296Z,63.50
2023-05-14T19:02:41.333Z,63.60
2023-05-14T19:05:08.163Z,66.70
2023-05-14T19:07:34.818Z,65.70
2023-05-14T19:10:01.470Z,63.60
2023-05-14T19:12:28.034Z,64.50
2023-05-14T19:14:54.633Z,66.40
2023-05-14T19:17:21.422Z,66.40
2023-05-14T19:19:48.044Z,63.80
2023-05-14T19:22:14.594Z,63.60
2023-05-14T19:24:41.172Z,65.70
2023-05-14T19:27:08.079Z,63.40
2023-05-14T19:29:36.644Z,63.50
2023-05-14T19:32:04.576Z,66.00
2023-05-14T19:34:31.546Z,64.40
2023-05-14T19:36:58.211Z,65.90
2023-05-14T19:39:24.784Z,65.60
2023-05-14T19:41:51.490Z,64.60
2023-05-14T19:44:18.191Z,65.00
2023-05-14T19:46:45.148Z,66.10
2023-05-14T19:49:12.072Z,66.10
2023-05-14T19:51:38.688Z,65.50
2023-05-14T19:54:05.359Z,65.60
2023-05-14T19:56:32.053Z,66.20
2023-05-14T19:58:58.666Z,69.20
2023-05-14T20:01:26.678Z,67.40
2023-05-14T20:03:53.288Z,67.00
2023-05-14T20:06:19.926Z,65.80
2023-05-14T20:08:46.548Z,65.80
2023-05-14T20:11:15.284Z,66.50
2023-05-14T20:13:41.973Z,66.60
2023-05-14T20:16:08.581Z,68.20
2023-05-14T20:18:35.272Z,66.60
2023-05-14T20:21:01.858Z,67.40
2023-05-14T20:23:28.563Z,67.50
2023-05-14T20:25:55.596Z,66.80
2023-05-14T20:28:22.176Z,67.30
2023-05-14T20:30:48.785Z,68.50
2023-05-14T20:33:15.845Z,67.60
2023-05-14T20:35:43.881Z,67.20
2023-05-14T20:38:12.593Z,68.10
2023-05-14T20:40:39.329Z,68.70
2023-05-14T20:43:05.920Z,68.80
2023-05-14T20:45:32.608Z,69.60
2023-05-14T20:47:59.305Z,69.50
2023-05-14T20:50:27.695Z,69.40
2023-05-14T20:52:55.353Z,68.50
2023-05-14T20:55:22.279Z,68.50
2023-05-14T20:57:49.667Z,68.60
2023-05-14T21:00:16.482Z,69.70
2023-05-14T21:02:43.185Z,69.50
2023-05-14T21:05:09.887Z,69.20
2023-05-14T21:07:37.299Z,69.30
2023-05-14T21:10:04.205Z,70.40
2023-05-14T21:12:30.786Z,70.70
2023-05-14T21:14:57.310Z,69.90
2023-05-14T21:17:23.916Z,70.90
2023-05-14T21:19:50.463Z,71.20
2023-05-14T21:22:17.188Z,70.90
2023-05-14T21:24:43.803Z,71.20
2023-05-14T21:27:10.606Z,70.60
2023-05-14T21:29:37.164Z,71.20
2023-05-14T21:32:03.869Z,71.20
2023-05-14T21:34:31.963Z,71.40
2023-05-14T21:36:58.783Z,71.30
2023-05-14T21:39:25.400Z,70.70
2023-05-14T21:41:52.099Z,70.80
2023-05-14T21:44:18.810Z,70.40
2023-05-14T21:46:45.440Z,71.00
2023-05-14T21:49:12.033Z,71.60
2023-05-14T21:51:38.603Z,71.30
2023-05-14T21:54:06.986Z,71.80
2023-05-14T21:56:34.901Z,72.00
2023-05-14T21:59:01.597Z,73.00
2023-05-14T22:01:28.289Z,72.60
2023-05-14T22:03:56.417Z,72.70
2023-05-14T22:06:24.450Z,73.70
2023-05-14T22:08:51.219Z,74.00
2023-05-14T22:11:17.771Z,72.90
2023-05-14T22:13:44.428Z,73.10
2023-05-14T22:16:13.448Z,72.80
2023-05-14T22:18:40.559Z,73.10
2023-05-14T22:21:07.230Z,72.90
2023-05-14T22:23:34.148Z,73.20
2023-05-14T22:26:00.838Z,73.30
2023-05-14T22:28:27.470Z,73.00
2023-05-14T22:30:54.333Z,73.60
2023-05-14T22:33:22.851Z,74.20
2023-05-14T22:35:49.398Z,74.30
2023-05-14T22:38:16.025Z,74.00
2023-05-14T22:40:42.616Z,73.60
2023-05-14T22:43:09.254Z,73.70
2023-05-14T22:45:35.868Z,74.50
2023-05-14T22:48:02.712Z,73.90
2023-05-14T22:50:29.333Z,74.10
2023-05-14T22:52:55.924Z,74.20
2023-05-14T22:55:22.586Z,74.40
2023-05-14T22:57:49.604Z,74.60
2023-05-14T23:00:16.477Z,74.80
2023-05-14T23:02:43.106Z,75.30
2023-05-14T23:05:09.796Z,75.40
2023-05-14T23:07:36.462Z,75.50
2023-05-14T23:10:03.168Z,75.20
2023-05-14T23:12:29.750Z,75.40
2023-05-14T23:14:56.454Z,75.40
2023-05-14T23:17:23.062Z,75.70
2023-05-14T23:19:49.828Z,76.10
2023-05-14T23:22:16.437Z,76.20
2023-05-14T23:24:43.140Z,76.70
2023-05-14T23:27:10.919Z,76.50
2023-05-14T23:29:37.490Z,76.40
2023-05-14T23:32:04.214Z,76.80
2023-05-14T23:34:30.991Z,76.90
2023-05-14T23:36:57.604Z,77.30
2023-05-14T23:39:24.231Z,77.60
2023-05-14T23:41:50.872Z,77.20
2023-05-14T23:44:17.436Z,77.70
2023-05-14T23:46:44.038Z,78.00
2023-05-14T23:49:10.796Z,78.20
2023-05-14T23:51:37.738Z,78.30
2023-05-14T23:54:04.662Z,78.80
2023-05-14T23:56:31.394Z,78.50
2023-05-14T23:58:58.037Z,78.20
